Thailine 5 — 9WFF5 — position and weather

sailwx.info

Track history (hours):
 
Tides and Currents Weather Stations Pressure Air Temp Water Temp Dewpoint Dewpoint Depression Visibility Wind Speed Wind Dir Waves Ship Positions

Thailine 5

Last reported at 2017-Feb-28 04:03 UTC. Time now 2017-Mar-30 14:32 UTC.
Position N 06°50' E 115°03'.
Warning: this ship's position is 30 days out of date.

; draft 4.7 m.

Type: Cargo ship. MMSI: 533399000.

Date/timePositionNaut miles runAvg speedWind from/ knotsBaromVisibWave heightAir tempDewpointWater temp
2017-Feb-28 04:03N 06°50' E 115°03'713.1
2017-Feb-28 03:33N 06°55' E 115°07'  
2017-Feb-20 05:05N 33°35' E 132°12'610.6
2017-Feb-20 04:32N 33°39' E 132°17'9 9.4
2017-Feb-20 03:33N 33°45' E 132°25'9 8.9
2017-Feb-20 02:33N 33°51' E 132°33'10 9.6
2017-Feb-20 01:33N 33°57' E 132°42'12211.0
2017-Feb-19 14:31N 34°37' E 135°01'9 9.7
2017-Feb-19 13:33N 34°28' E 135°04'1211.7
2017-Feb-19 12:30N 34°17' E 134°59'1111.3
2017-Feb-19 11:33N 34°06' E 134°59'  
Track history (hours):
 
Tides and Currents Weather Stations Pressure Air Temp Water Temp Dewpoint Dewpoint Depression Visibility Wind Speed Wind Dir Waves Ship Positions

Thailine 5

Last reported at 2017-Feb-28 04:03 UTC. Time now 2017-Mar-30 14:32 UTC.
Position N 06°50' E 115°03'.
Warning: this ship's position is 30 days out of date.

; draft 4.7 m.

Type: Cargo ship. MMSI: 533399000.

Date/timePositionNaut miles runAvg speedWind from/ knotsBaromVisibWave heightAir tempDewpointWater temp
2017-Feb-28 04:03N 06°50' E 115°03'713.1
2017-Feb-28 03:33N 06°55' E 115°07'  
2017-Feb-20 05:05N 33°35' E 132°12'610.6
2017-Feb-20 04:32N 33°39' E 132°17'9 9.4
2017-Feb-20 03:33N 33°45' E 132°25'9 8.9
2017-Feb-20 02:33N 33°51' E 132°33'10 9.6
2017-Feb-20 01:33N 33°57' E 132°42'12211.0
2017-Feb-19 14:31N 34°37' E 135°01'9 9.7
2017-Feb-19 13:33N 34°28' E 135°04'1211.7
2017-Feb-19 12:30N 34°17' E 134°59'1111.3
2017-Feb-19 11:33N 34°06' E 134°59'  

Dump ship's entire track history